createdAt,value
2023-03-16T00:02:05.143Z,18.42
2023-03-16T00:04:32.458Z,12.95
2023-03-16T00:06:59.020Z,19.70
2023-03-16T00:09:31.051Z,15.75
2023-03-16T00:11:59.025Z,10.55
2023-03-16T00:14:26.360Z,10.88
2023-03-16T00:16:53.271Z,17.77
2023-03-16T00:19:19.849Z,16.70
2023-03-16T00:21:46.420Z,14.85
2023-03-16T00:24:12.998Z,15.18
2023-03-16T00:26:39.477Z,12.85
2023-03-16T00:29:05.982Z,15.23
2023-03-16T00:31:33.862Z,15.05
2023-03-16T00:34:02.657Z,14.15
2023-03-16T00:36:30.232Z,14.80
2023-03-16T00:38:56.758Z,12.95
2023-03-16T00:41:24.117Z,14.32
2023-03-16T00:43:51.710Z,11.65
2023-03-16T00:46:18.600Z,15.80
2023-03-16T00:48:47.253Z,17.55
2023-03-16T00:51:16.828Z,15.90
2023-03-16T00:53:45.449Z,12.65
2023-03-16T00:56:13.717Z,13.10
2023-03-16T00:58:43.082Z,13.85
2023-03-16T01:01:16.678Z,11.90
2023-03-16T01:03:43.579Z,11.90
2023-03-16T01:06:17.465Z,15.02
2023-03-16T01:08:44.404Z,12.55
2023-03-16T01:11:13.709Z,11.98
2023-03-16T01:13:40.428Z,14.60
2023-03-16T01:16:09.024Z,14.18
2023-03-16T01:18:35.636Z,11.02
2023-03-16T01:21:03.852Z,13.45
2023-03-16T01:23:32.930Z,11.88
2023-03-16T01:26:00.176Z,15.80
2023-03-16T01:28:30.101Z,12.85
2023-03-16T01:31:04.838Z,12.85
2023-03-16T01:33:33.763Z,14.27
2023-03-16T01:36:06.659Z,11.07
2023-03-16T01:38:42.882Z,10.75
2023-03-16T01:41:10.381Z,13.43
2023-03-16T01:43:39.498Z,11.45
2023-03-16T01:46:06.189Z,13.90
2023-03-16T01:49:08.146Z,10.00
2023-03-16T01:51:42.829Z,10.25
2023-03-16T01:54:14.534Z,11.73
2023-03-16T01:56:55.473Z,11.65
2023-03-16T01:59:24.854Z,15.55
2023-03-16T02:01:52.042Z,12.80
2023-03-16T02:04:23.784Z,10.65
2023-03-16T02:06:55.022Z,13.00
2023-03-16T02:09:23.286Z,9.20
2023-03-16T02:11:50.047Z,11.05
2023-03-16T02:14:16.971Z,11.85
2023-03-16T02:16:44.861Z,14.98
2023-03-16T02:19:17.406Z,13.07
2023-03-16T02:21:59.482Z,14.57
2023-03-16T02:24:26.062Z,12.88
2023-03-16T02:26:58.525Z,11.45
2023-03-16T02:29:42.477Z,9.88
2023-03-16T02:32:10.295Z,14.30
2023-03-16T02:34:37.548Z,13.07
2023-03-16T02:37:04.432Z,11.73
2023-03-16T02:39:31.612Z,11.55
2023-03-16T02:42:01.220Z,17.70
2023-03-16T02:44:33.619Z,13.70
2023-03-16T02:47:03.893Z,11.90
2023-03-16T02:49:35.681Z,15.05
2023-03-16T02:52:03.259Z,12.68
2023-03-16T02:54:31.123Z,10.80
2023-03-16T02:56:57.766Z,13.35
2023-03-16T02:59:25.775Z,13.63
2023-03-16T03:01:52.456Z,15.15
2023-03-16T03:04:19.227Z,13.15
2023-03-16T03:06:48.495Z,12.48
2023-03-16T03:09:15.174Z,9.73
2023-03-16T03:11:42.516Z,10.88
2023-03-16T03:14:09.129Z,15.10
2023-03-16T03:16:38.271Z,15.15
2023-03-16T03:19:05.072Z,11.80
2023-03-16T03:21:35.831Z,10.93
2023-03-16T03:24:02.539Z,13.07
2023-03-16T03:26:29.366Z,18.00
2023-03-16T03:28:59.091Z,11.38
2023-03-16T03:31:25.741Z,9.27
2023-03-16T03:33:53.574Z,15.43
2023-03-16T03:36:22.159Z,7.55
2023-03-16T03:38:55.109Z,13.45
2023-03-16T03:41:23.642Z,12.48
2023-03-16T03:43:51.869Z,9.68
2023-03-16T03:46:19.171Z,10.57
2023-03-16T03:48:45.861Z,9.95
2023-03-16T03:51:12.495Z,10.52
2023-03-16T03:53:44.966Z,13.95
2023-03-16T03:56:22.722Z,10.70
2023-03-16T03:58:49.675Z,9.98
2023-03-16T04:01:24.670Z,14.15
2023-03-16T04:03:51.278Z,10.18
2023-03-16T04:06:18.158Z,12.30
2023-03-16T04:08:44.844Z,10.10
2023-03-16T04:11:15.008Z,15.90
2023-03-16T04:13:41.821Z,20.27
2023-03-16T04:16:09.241Z,13.00
2023-03-16T04:18:42.439Z,9.85
2023-03-16T04:21:14.423Z,9.75
2023-03-16T04:23:42.450Z,9.63
2023-03-16T04:26:08.984Z,9.35
2023-03-16T04:28:35.582Z,9.98
2023-03-16T04:31:07.155Z,11.63
2023-03-16T04:33:39.727Z,9.65
2023-03-16T04:36:06.963Z,13.13
2023-03-16T04:38:36.327Z,10.32
2023-03-16T04:41:04.338Z,12.23
2023-03-16T04:43:38.466Z,10.55
2023-03-16T04:46:19.498Z,9.18
2023-03-16T04:48:46.228Z,11.57
2023-03-16T04:51:12.812Z,13.73
2023-03-16T04:53:45.212Z,11.77
2023-03-16T04:56:23.433Z,8.25
2023-03-16T04:58:57.111Z,12.82
2023-03-16T05:01:26.061Z,10.18
2023-03-16T05:03:59.559Z,10.27
2023-03-16T05:06:27.318Z,10.70
2023-03-16T05:08:54.717Z,8.02
2023-03-16T05:11:21.258Z,9.75
2023-03-16T05:13:55.220Z,13.55
2023-03-16T05:16:22.455Z,13.45
2023-03-16T05:18:50.187Z,13.73
2023-03-16T05:21:16.759Z,10.27
2023-03-16T05:23:56.338Z,13.05
2023-03-16T05:26:22.887Z,11.60
2023-03-16T05:28:50.409Z,10.43
2023-03-16T05:31:18.996Z,10.25
2023-03-16T05:33:52.217Z,11.25
2023-03-16T05:36:20.387Z,11.25
2023-03-16T05:38:51.411Z,10.45
2023-03-16T05:41:36.703Z,10.48
2023-03-16T05:44:29.418Z,10.13
2023-03-16T05:47:15.421Z,10.43
2023-03-16T05:49:46.214Z,9.32
2023-03-16T05:52:22.923Z,12.50
2023-03-16T05:54:49.508Z,12.63
2023-03-16T05:57:16.044Z,11.18
2023-03-16T05:59:45.109Z,10.98
2023-03-16T06:02:12.763Z,8.27
2023-03-16T06:04:40.072Z,10.75
2023-03-16T06:07:06.961Z,10.57
2023-03-16T06:09:34.193Z,12.77
2023-03-16T06:12:05.575Z,11.88
2023-03-16T06:14:34.593Z,14.82
2023-03-16T06:17:01.348Z,12.20
2023-03-16T06:19:28.772Z,11.57
2023-03-16T06:21:59.414Z,16.00
2023-03-16T06:24:27.646Z,16.45
2023-03-16T06:26:54.302Z,13.52
2023-03-16T06:29:25.370Z,17.08
2023-03-16T06:31:52.668Z,13.10
2023-03-16T06:34:19.815Z,19.92
2023-03-16T06:36:46.504Z,23.00
2023-03-16T06:39:14.319Z,15.13
2023-03-16T06:41:42.989Z,15.15
2023-03-16T06:44:12.276Z,16.25
2023-03-16T06:46:47.271Z,15.57
2023-03-16T06:49:13.868Z,17.27
2023-03-16T06:51:40.384Z,11.90
2023-03-16T06:54:07.041Z,13.82
2023-03-16T06:56:37.394Z,15.75
2023-03-16T06:59:04.065Z,12.40
2023-03-16T07:01:31.727Z,16.98
2023-03-16T07:03:58.506Z,14.82
2023-03-16T07:06:29.246Z,14.32
2023-03-16T07:08:55.804Z,16.52
2023-03-16T07:11:23.663Z,15.68
2023-03-16T07:13:51.626Z,14.10
2023-03-16T07:16:19.635Z,16.90
2023-03-16T07:18:46.259Z,16.85
2023-03-16T07:21:15.488Z,17.75
2023-03-16T07:23:43.153Z,15.55
2023-03-16T07:26:11.934Z,16.15
2023-03-16T07:28:47.904Z,16.75
2023-03-16T07:31:16.127Z,14.13
2023-03-16T07:33:42.933Z,18.13
2023-03-16T07:36:13.437Z,17.08
2023-03-16T07:38:45.953Z,18.42
2023-03-16T07:41:13.936Z,16.25
2023-03-16T07:43:41.119Z,13.77
2023-03-16T07:46:13.447Z,13.85
2023-03-16T07:48:42.468Z,10.30
2023-03-16T07:51:13.041Z,15.70
2023-03-16T07:53:40.534Z,17.58
2023-03-16T07:56:17.989Z,15.85
2023-03-16T07:58:47.611Z,17.17
2023-03-16T08:01:14.708Z,14.20
2023-03-16T08:03:42.009Z,13.57
2023-03-16T08:06:08.590Z,13.27
2023-03-16T08:08:36.149Z,15.15
2023-03-16T08:11:02.959Z,12.35
2023-03-16T08:13:43.851Z,12.60
2023-03-16T08:16:13.083Z,14.73
2023-03-16T08:18:43.583Z,12.25
2023-03-16T08:21:10.633Z,11.07
2023-03-16T08:23:37.334Z,11.95
2023-03-16T08:26:08.842Z,14.27
2023-03-16T08:28:36.244Z,15.48
2023-03-16T08:31:08.790Z,11.45
2023-03-16T08:33:41.444Z,13.07
2023-03-16T08:36:11.720Z,13.00
2023-03-16T08:38:39.956Z,13.45
2023-03-16T08:41:09.365Z,14.48
2023-03-16T08:43:37.400Z,14.98
2023-03-16T08:46:05.369Z,15.40
2023-03-16T08:48:42.525Z,13.20
2023-03-16T08:51:11.495Z,14.75
2023-03-16T08:53:38.076Z,12.10
2023-03-16T08:56:06.221Z,14.15
2023-03-16T08:58:34.078Z,13.40
2023-03-16T09:01:01.700Z,12.85
2023-03-16T09:03:28.469Z,12.80
2023-03-16T09:06:02.270Z,18.25
2023-03-16T09:08:29.289Z,13.30
2023-03-16T09:11:03.869Z,16.05
2023-03-16T09:13:30.875Z,11.80
2023-03-16T09:15:57.938Z,14.43
2023-03-16T09:18:26.170Z,15.35
2023-03-16T09:20:53.452Z,15.63
2023-03-16T09:23:20.886Z,17.15
2023-03-16T09:25:48.054Z,12.35
2023-03-16T09:28:14.626Z,11.70
2023-03-16T09:30:43.543Z,12.00
2023-03-16T09:33:10.172Z,17.88
2023-03-16T09:35:37.199Z,8.90
2023-03-16T09:38:05.898Z,9.93
2023-03-16T09:40:36.489Z,11.18
2023-03-16T09:43:07.163Z,19.15
2023-03-16T09:45:45.590Z,12.77
2023-03-16T09:48:12.788Z,8.88
2023-03-16T09:50:48.245Z,14.00
2023-03-16T09:53:25.448Z,17.23
2023-03-16T09:56:11.221Z,13.88
2023-03-16T09:58:37.716Z,12.88
2023-03-16T10:01:25.618Z,10.27
2023-03-16T10:04:06.839Z,14.38
2023-03-16T10:06:34.269Z,10.73
2023-03-16T10:09:11.190Z,11.57
2023-03-16T10:11:49.459Z,12.88
2023-03-16T10:14:40.046Z,11.85
2023-03-16T10:17:18.052Z,10.73
2023-03-16T10:20:14.987Z,11.18
2023-03-16T10:22:46.974Z,10.75
2023-03-16T10:25:34.422Z,9.38
2023-03-16T10:28:00.899Z,11.75
2023-03-16T10:30:30.012Z,9.65
2023-03-16T10:33:01.448Z,12.75
2023-03-16T10:35:48.749Z,11.60
2023-03-16T10:38:38.498Z,12.75
2023-03-16T10:41:35.372Z,8.98
2023-03-16T10:44:07.239Z,8.32
2023-03-16T10:46:48.250Z,10.75
2023-03-16T10:49:22.223Z,12.50
2023-03-16T10:51:49.168Z,9.00
2023-03-16T10:54:21.739Z,13.70
2023-03-16T10:56:50.483Z,11.07
2023-03-16T10:59:33.993Z,8.52
2023-03-16T11:02:03.738Z,6.85
2023-03-16T11:04:33.952Z,12.23
2023-03-16T11:07:00.641Z,10.85
2023-03-16T11:09:33.122Z,7.43
2023-03-16T11:12:01.103Z,10.18
2023-03-16T11:14:28.606Z,10.70
2023-03-16T11:17:02.119Z,8.35
2023-03-16T11:19:34.539Z,8.70
2023-03-16T11:22:23.613Z,6.63
2023-03-16T11:25:09.275Z,11.60
2023-03-16T11:27:52.881Z,5.28
2023-03-16T11:30:29.111Z,8.73
2023-03-16T11:32:55.895Z,8.45
2023-03-16T11:35:58.419Z,6.43
2023-03-16T11:38:33.401Z,8.52
2023-03-16T11:41:02.106Z,8.20
2023-03-16T11:43:43.472Z,5.93
2023-03-16T11:46:16.992Z,7.65
2023-03-16T11:48:46.259Z,8.50
2023-03-16T11:51:30.124Z,5.95
2023-03-16T11:53:59.427Z,7.22
2023-03-16T11:56:32.342Z,6.35
2023-03-16T11:59:04.394Z,6.00
2023-03-16T12:02:19.033Z,12.52
2023-03-16T12:05:07.866Z,9.30
2023-03-16T12:08:16.828Z,7.80
2023-03-16T12:10:52.612Z,7.15
2023-03-16T12:13:35.219Z,9.38
2023-03-16T12:16:39.106Z,9.57
2023-03-16T12:19:32.958Z,6.78
2023-03-16T12:22:18.333Z,12.32
2023-03-16T12:24:46.936Z,8.07
2023-03-16T12:27:22.522Z,8.52
2023-03-16T12:29:57.717Z,6.93
2023-03-16T12:32:34.610Z,8.48
2023-03-16T12:35:17.102Z,7.03
2023-03-16T12:38:01.690Z,8.73
2023-03-16T12:40:31.952Z,7.35
2023-03-16T12:43:10.814Z,8.20
2023-03-16T12:46:07.928Z,9.68
2023-03-16T12:48:47.980Z,8.18
2023-03-16T12:51:14.527Z,8.52
2023-03-16T12:53:44.813Z,11.20
2023-03-16T12:56:15.147Z,8.50
2023-03-16T12:58:48.394Z,10.60
2023-03-16T13:01:18.443Z,8.60
2023-03-16T13:03:48.037Z,8.88
2023-03-16T13:06:21.029Z,5.00
2023-03-16T13:08:52.317Z,10.73
2023-03-16T13:11:18.893Z,9.55
2023-03-16T13:13:59.659Z,8.05
2023-03-16T13:16:29.405Z,7.60
2023-03-16T13:18:56.430Z,8.98
2023-03-16T13:21:39.896Z,6.97
2023-03-16T13:24:34.130Z,8.38
2023-03-16T13:27:19.309Z,8.75
2023-03-16T13:29:54.910Z,7.85
2023-03-16T13:32:22.116Z,7.18
2023-03-16T13:34:50.643Z,8.30
2023-03-16T13:37:19.699Z,6.57
2023-03-16T13:40:20.068Z,10.77
2023-03-16T13:42:49.711Z,5.38
2023-03-16T13:45:21.284Z,6.70
2023-03-16T13:47:49.063Z,8.07
2023-03-16T13:50:16.457Z,7.50
2023-03-16T13:52:44.485Z,6.15
2023-03-16T13:55:26.613Z,8.27
2023-03-16T13:57:53.350Z,6.53
2023-03-16T14:00:32.522Z,4.88
2023-03-16T14:03:04.257Z,7.50
2023-03-16T14:05:34.529Z,5.28
2023-03-16T14:08:02.074Z,7.00
2023-03-16T14:10:34.190Z,9.20
2023-03-16T14:13:32.424Z,6.72
2023-03-16T14:16:01.569Z,6.03
2023-03-16T14:18:35.989Z,5.78
2023-03-16T14:21:08.024Z,8.57
2023-03-16T14:23:38.171Z,8.07
2023-03-16T14:26:08.880Z,8.13
2023-03-16T14:28:35.414Z,7.32
2023-03-16T14:31:06.049Z,8.50
2023-03-16T14:33:35.424Z,7.13
2023-03-16T14:36:11.377Z,5.65
2023-03-16T14:38:40.546Z,4.85
2023-03-16T14:41:22.853Z,5.70
2023-03-16T14:43:55.481Z,5.43
2023-03-16T14:46:29.312Z,6.63
2023-03-16T14:49:21.848Z,9.20
2023-03-16T14:51:50.258Z,5.50
2023-03-16T14:54:18.352Z,4.60
2023-03-16T14:56:52.932Z,4.78
2023-03-16T14:59:20.296Z,3.65
2023-03-16T15:01:47.530Z,9.32
2023-03-16T15:04:16.159Z,5.90
2023-03-16T15:06:42.783Z,7.88
2023-03-16T15:09:32.657Z,5.85
2023-03-16T15:11:59.385Z,6.15
2023-03-16T15:14:45.256Z,6.43
2023-03-16T15:17:11.775Z,7.47
2023-03-16T15:19:38.360Z,9.98
2023-03-16T15:22:05.099Z,6.18
2023-03-16T15:24:33.184Z,7.47
2023-03-16T15:27:00.033Z,7.28
2023-03-16T15:29:27.071Z,6.50
2023-03-16T15:31:54.666Z,8.77
2023-03-16T15:34:22.460Z,3.30
2023-03-16T15:36:49.159Z,6.07
2023-03-16T15:39:21.674Z,3.90
2023-03-16T15:41:48.307Z,5.28
2023-03-16T15:44:14.808Z,5.70
2023-03-16T15:46:41.524Z,7.38
2023-03-16T15:49:08.311Z,3.75
2023-03-16T15:51:35.616Z,6.93
2023-03-16T15:54:06.878Z,5.00
2023-03-16T15:59:13.474Z,6.75
2023-03-16T16:01:47.726Z,8.02
2023-03-16T16:04:22.433Z,5.38
2023-03-16T16:06:49.998Z,4.93
2023-03-16T16:09:17.120Z,4.63
2023-03-16T16:11:44.257Z,10.18
2023-03-16T16:14:15.620Z,7.00
2023-03-16T16:19:14.256Z,6.15
2023-03-16T16:21:41.379Z,6.65
2023-03-16T16:24:09.012Z,6.68
2023-03-16T16:26:48.972Z,8.73
2023-03-16T16:29:22.114Z,7.78
2023-03-16T16:34:18.045Z,4.35
2023-03-16T16:36:45.015Z,4.93
2023-03-16T16:39:12.520Z,5.93
2023-03-16T16:41:40.498Z,8.32
2023-03-16T16:44:16.845Z,6.43
2023-03-16T16:46:43.770Z,6.25
2023-03-16T16:49:19.717Z,9.02
2023-03-16T16:51:46.395Z,5.88
2023-03-16T16:54:24.104Z,5.07
2023-03-16T16:56:52.565Z,8.52
2023-03-16T16:59:24.214Z,9.18
2023-03-16T17:01:52.252Z,9.50
2023-03-16T17:04:23.337Z,5.00
2023-03-16T17:06:52.174Z,7.97
2023-03-16T17:09:18.939Z,5.55
2023-03-16T17:11:45.792Z,4.40
2023-03-16T17:14:16.945Z,7.13
2023-03-16T17:19:19.776Z,6.55
2023-03-16T17:21:46.456Z,5.75
2023-03-16T17:24:12.952Z,8.65
2023-03-16T17:26:45.736Z,6.20
2023-03-16T17:29:24.259Z,10.77
2023-03-16T17:31:51.330Z,6.85
2023-03-16T17:34:20.877Z,6.45
2023-03-16T17:36:47.687Z,9.63
2023-03-16T17:39:22.386Z,9.70
2023-03-16T17:41:55.206Z,10.77
2023-03-16T17:44:21.727Z,6.22
2023-03-16T17:46:48.684Z,11.65
2023-03-16T17:49:20.533Z,7.32
2023-03-16T17:51:47.821Z,14.38
2023-03-16T17:54:14.437Z,9.00
2023-03-16T17:56:41.651Z,11.02
2023-03-16T17:59:15.852Z,8.30
2023-03-16T18:01:43.722Z,9.02
2023-03-16T18:04:22.073Z,10.20
2023-03-16T18:06:49.575Z,12.55
2023-03-16T18:09:18.149Z,8.88
2023-03-16T18:11:47.487Z,10.77
2023-03-16T18:14:34.713Z,10.13
2023-03-16T18:17:03.313Z,6.57
2023-03-16T18:19:31.656Z,9.90
2023-03-16T18:21:58.785Z,14.23
2023-03-16T18:24:28.050Z,15.85
2023-03-16T18:26:55.293Z,9.15
2023-03-16T18:29:22.389Z,10.15
2023-03-16T18:31:56.904Z,17.77
2023-03-16T18:34:23.986Z,7.93
2023-03-16T18:36:53.386Z,9.93
2023-03-16T18:39:21.296Z,10.85
2023-03-16T18:41:48.133Z,8.45
2023-03-16T18:44:21.656Z,8.48
2023-03-16T18:46:49.342Z,9.60
2023-03-16T18:49:36.414Z,8.88
2023-03-16T18:52:04.183Z,7.00
2023-03-16T18:54:32.546Z,9.88
2023-03-16T18:57:00.230Z,12.27
2023-03-16T18:59:27.312Z,10.32
2023-03-16T19:01:54.099Z,10.48
2023-03-16T19:04:29.379Z,9.68
2023-03-16T19:06:56.700Z,10.48
2023-03-16T19:09:30.991Z,8.82
2023-03-16T19:11:58.183Z,8.65
2023-03-16T19:14:31.564Z,7.65
2023-03-16T19:16:58.282Z,7.78
2023-03-16T19:19:25.492Z,11.07
2023-03-16T19:21:54.053Z,10.38
2023-03-16T19:24:48.061Z,7.72
2023-03-16T19:27:22.789Z,8.18
2023-03-16T19:29:53.636Z,7.65
2023-03-16T19:32:21.362Z,20.55
2023-03-16T19:34:48.774Z,14.13
2023-03-16T19:37:16.843Z,10.18
2023-03-16T19:39:43.857Z,10.98
2023-03-16T19:42:28.709Z,8.68
2023-03-16T19:44:55.246Z,7.30
2023-03-16T19:47:27.137Z,18.00
2023-03-16T19:49:53.888Z,6.13
2023-03-16T19:52:20.457Z,6.47
2023-03-16T19:54:47.036Z,9.20
2023-03-16T19:57:16.104Z,7.63
2023-03-16T19:59:45.450Z,11.50
2023-03-16T20:02:24.271Z,8.73
2023-03-16T20:04:51.630Z,11.32
2023-03-16T20:07:18.140Z,9.02
2023-03-16T20:09:44.960Z,9.02
2023-03-16T20:12:30.020Z,6.07
2023-03-16T20:14:57.081Z,6.53
2023-03-16T20:17:26.112Z,5.78
2023-03-16T20:19:52.997Z,6.50
2023-03-16T20:22:21.952Z,6.68
2023-03-16T20:24:50.616Z,6.38
2023-03-16T20:27:19.784Z,6.53
2023-03-16T20:29:46.850Z,6.72
2023-03-16T20:32:18.850Z,6.70
2023-03-16T20:34:46.338Z,7.78
2023-03-16T20:37:23.787Z,9.52
2023-03-16T20:39:51.843Z,5.03
2023-03-16T20:42:19.674Z,9.77
2023-03-16T20:44:46.598Z,7.80
2023-03-16T20:47:19.702Z,9.88
2023-03-16T20:49:46.276Z,5.22
2023-03-16T20:52:25.104Z,8.93
2023-03-16T20:54:51.756Z,5.78
2023-03-16T20:57:24.201Z,9.88
2023-03-16T20:59:51.874Z,5.68
2023-03-16T21:02:28.622Z,12.73
2023-03-16T21:04:56.940Z,9.10
2023-03-16T21:07:23.623Z,7.78
2023-03-16T21:09:50.984Z,7.95
2023-03-16T21:12:24.199Z,7.95
2023-03-16T21:14:51.571Z,6.72
2023-03-16T21:17:25.887Z,7.38
2023-03-16T21:19:52.914Z,8.20
2023-03-16T21:22:40.241Z,8.88
2023-03-16T21:25:07.393Z,9.63
2023-03-16T21:27:34.394Z,9.95
2023-03-16T21:30:07.310Z,7.38
2023-03-16T21:32:34.033Z,11.23
2023-03-16T21:35:01.465Z,10.80
2023-03-16T21:37:28.084Z,9.10
2023-03-16T21:39:54.639Z,8.55
2023-03-16T21:42:21.666Z,8.05
2023-03-16T21:44:48.249Z,13.05
2023-03-16T21:47:28.514Z,7.55
2023-03-16T21:49:55.631Z,9.57
2023-03-16T21:52:23.893Z,7.47
2023-03-16T21:54:51.955Z,8.70
2023-03-16T21:57:19.878Z,9.68
2023-03-16T21:59:46.993Z,9.10
2023-03-16T22:02:21.064Z,10.50
2023-03-16T22:04:48.309Z,9.70
2023-03-16T22:07:15.356Z,10.32
2023-03-16T22:09:42.485Z,9.60
2023-03-16T22:12:13.290Z,10.15
2023-03-16T22:14:40.445Z,9.88
2023-03-16T22:17:08.439Z,8.60
2023-03-16T22:19:35.157Z,6.38
2023-03-16T22:22:01.737Z,7.38
2023-03-16T22:24:30.822Z,10.95
2023-03-16T22:26:57.946Z,7.80
2023-03-16T22:29:25.184Z,8.52
2023-03-16T22:31:55.593Z,7.50
2023-03-16T22:34:29.228Z,7.22
2023-03-16T22:36:56.770Z,9.65
2023-03-16T22:39:23.945Z,6.20
2023-03-16T22:41:51.023Z,7.82
2023-03-16T22:44:22.473Z,9.38
2023-03-16T22:46:50.210Z,6.80
2023-03-16T22:49:26.148Z,12.52
2023-03-16T22:51:55.436Z,10.25
2023-03-16T22:54:25.241Z,8.23
2023-03-16T22:56:52.743Z,8.82
2023-03-16T22:59:22.149Z,10.32
2023-03-16T23:01:49.707Z,6.90
2023-03-16T23:04:19.920Z,7.05
2023-03-16T23:06:51.362Z,8.65
2023-03-16T23:11:46.230Z,6.40
2023-03-16T23:14:20.213Z,10.55
2023-03-16T23:16:48.366Z,5.45
2023-03-16T23:19:24.813Z,7.55
2023-03-16T23:21:54.437Z,8.32
2023-03-16T23:24:21.786Z,6.85
2023-03-16T23:26:49.019Z,7.78
2023-03-16T23:29:15.592Z,6.07
2023-03-16T23:31:42.437Z,6.03
2023-03-16T23:34:11.120Z,5.80
2023-03-16T23:36:37.729Z,8.40
2023-03-16T23:39:04.820Z,12.73
2023-03-16T23:41:31.775Z,5.93
2023-03-16T23:43:58.385Z,9.05
2023-03-16T23:46:28.097Z,7.60
2023-03-16T23:48:56.862Z,5.68
2023-03-16T23:51:36.469Z,6.93
2023-03-16T23:54:14.135Z,5.70
2023-03-16T23:56:40.859Z,4.35
2023-03-16T23:59:07.406Z,8.18
